createdAt,value
2023-01-17T00:01:09.457Z,67.93
2023-01-17T00:03:12.055Z,68.48
2023-01-17T00:05:33.868Z,68.79
2023-01-17T00:07:54.974Z,69.15
2023-01-17T00:10:00.231Z,68.67
2023-01-17T00:12:03.474Z,68.70
2023-01-17T00:14:06.050Z,69.30
2023-01-17T00:16:08.741Z,69.68
2023-01-17T00:18:11.330Z,69.04
2023-01-17T00:20:34.536Z,68.67
2023-01-17T00:22:55.929Z,70.40
2023-01-17T00:25:16.920Z,69.71
2023-01-17T00:27:19.376Z,69.61
2023-01-17T00:29:21.872Z,68.24
2023-01-17T00:31:24.496Z,68.79
2023-01-17T00:33:27.450Z,68.90
2023-01-17T00:35:32.274Z,68.96
2023-01-17T00:37:34.891Z,68.80
2023-01-17T00:39:37.424Z,69.35
2023-01-17T00:41:39.989Z,69.67
2023-01-17T00:44:01.230Z,69.05
2023-01-17T00:46:22.906Z,69.55
2023-01-17T00:48:44.034Z,68.27
2023-01-17T00:51:04.992Z,67.98
2023-01-17T00:53:26.126Z,69.45
2023-01-17T00:55:47.343Z,68.02
2023-01-17T00:58:08.689Z,68.15
2023-01-17T01:00:30.574Z,68.12
2023-01-17T01:02:52.529Z,68.79
2023-01-17T01:05:13.425Z,68.37
2023-01-17T01:07:34.679Z,68.28
2023-01-17T01:09:56.081Z,69.36
2023-01-17T01:12:17.503Z,68.84
2023-01-17T01:14:38.699Z,69.34
2023-01-17T01:17:00.164Z,68.32
2023-01-17T01:19:22.182Z,68.97
2023-01-17T01:21:43.487Z,68.83
2023-01-17T01:24:04.648Z,69.29
2023-01-17T01:26:25.667Z,69.11
2023-01-17T01:28:46.970Z,69.33
2023-01-17T01:31:08.077Z,69.26
2023-01-17T01:33:19.455Z,69.21
2023-01-17T01:35:23.190Z,69.08
2023-01-17T01:37:25.763Z,69.76
2023-01-17T01:39:28.568Z,69.22
2023-01-17T01:41:31.248Z,69.49
2023-01-17T01:43:44.565Z,68.89
2023-01-17T01:45:54.994Z,69.86
2023-01-17T01:48:24.342Z,69.58
2023-01-17T01:50:28.652Z,70.01
2023-01-17T01:52:34.721Z,69.99
2023-01-17T01:54:43.371Z,69.74
2023-01-17T01:56:47.586Z,69.91
2023-01-17T01:58:52.544Z,69.79
2023-01-17T02:00:55.145Z,70.36
2023-01-17T02:03:02.738Z,70.49
2023-01-17T02:05:05.964Z,70.13
2023-01-17T02:07:27.436Z,70.50
2023-01-17T02:09:30.156Z,70.76
2023-01-17T02:11:34.896Z,70.46
2023-01-17T02:13:37.585Z,70.61
2023-01-17T02:16:04.657Z,70.41
2023-01-17T02:18:20.396Z,71.21
2023-01-17T02:20:57.315Z,70.85
2023-01-17T02:23:11.866Z,70.79
2023-01-17T02:25:43.681Z,71.40
2023-01-17T02:27:58.013Z,72.15
2023-01-17T02:30:26.108Z,72.01
2023-01-17T02:32:44.257Z,72.77
2023-01-17T02:35:01.565Z,74.14
2023-01-17T02:37:14.830Z,73.68
2023-01-17T02:39:24.611Z,73.33
2023-01-17T02:41:37.308Z,73.01
2023-01-17T02:43:40.820Z,72.90
2023-01-17T02:45:44.120Z,72.82
2023-01-17T02:47:47.232Z,74.13
2023-01-17T02:49:52.800Z,73.57
2023-01-17T02:52:02.629Z,73.83
2023-01-17T02:54:32.185Z,73.99
2023-01-17T02:56:58.922Z,73.68
2023-01-17T02:59:04.286Z,73.96
2023-01-17T03:01:30.405Z,74.13
2023-01-17T03:03:57.932Z,74.21
2023-01-17T03:06:13.700Z,74.42
2023-01-17T03:08:17.399Z,75.10
2023-01-17T03:10:21.523Z,74.32
2023-01-17T03:12:27.647Z,74.68
2023-01-17T03:14:33.206Z,74.34
2023-01-17T03:16:36.129Z,73.86
2023-01-17T03:18:38.768Z,73.75
2023-01-17T03:20:41.845Z,74.08
2023-01-17T03:22:44.526Z,73.73
2023-01-17T03:24:48.196Z,73.26
2023-01-17T03:26:50.824Z,73.49
2023-01-17T03:28:53.515Z,72.95
2023-01-17T03:30:56.273Z,73.51
2023-01-17T03:32:58.878Z,73.60
2023-01-17T03:35:01.490Z,73.89
2023-01-17T03:37:05.689Z,74.35
2023-01-17T03:39:08.538Z,74.26
2023-01-17T03:41:11.246Z,73.77
2023-01-17T03:43:13.995Z,73.33
2023-01-17T03:45:16.905Z,74.25
2023-01-17T03:47:19.502Z,73.93
2023-01-17T03:49:23.007Z,74.38
2023-01-17T03:51:25.759Z,74.49
2023-01-17T03:53:28.355Z,74.24
2023-01-17T03:55:30.969Z,74.07
2023-01-17T03:57:33.578Z,74.93
2023-01-17T03:59:36.611Z,75.35
2023-01-17T04:01:39.388Z,75.31
2023-01-17T04:03:42.118Z,75.55
2023-01-17T04:05:44.770Z,75.23
2023-01-17T04:07:47.390Z,75.01
2023-01-17T04:09:50.036Z,75.36
2023-01-17T04:11:53.641Z,75.36
2023-01-17T04:13:56.240Z,75.47
2023-01-17T04:15:59.118Z,75.03
2023-01-17T04:18:02.197Z,74.77
2023-01-17T04:20:05.330Z,75.24
2023-01-17T04:22:08.245Z,74.75
2023-01-17T04:24:10.957Z,75.73
2023-01-17T04:26:13.909Z,75.34
2023-01-17T04:28:16.734Z,75.34
2023-01-17T04:30:19.690Z,76.01
2023-01-17T04:32:22.370Z,76.19
2023-01-17T04:34:25.183Z,76.30
2023-01-17T04:36:27.762Z,77.35
2023-01-17T04:38:30.376Z,77.13
2023-01-17T04:40:32.984Z,76.75
2023-01-17T04:42:35.625Z,76.25
2023-01-17T04:44:38.413Z,75.97
2023-01-17T04:46:41.017Z,76.33
2023-01-17T04:48:43.594Z,76.55
2023-01-17T04:50:46.223Z,76.52
2023-01-17T04:52:48.856Z,76.31
2023-01-17T04:54:51.947Z,75.60
2023-01-17T04:56:54.569Z,76.16
2023-01-17T04:58:58.491Z,76.35
2023-01-17T05:01:05.846Z,76.25
2023-01-17T05:03:08.792Z,77.13
2023-01-17T05:05:11.372Z,77.14
2023-01-17T05:07:14.089Z,76.62
2023-01-17T05:09:16.699Z,76.24
2023-01-17T05:11:19.374Z,76.04
2023-01-17T05:13:22.086Z,75.79
2023-01-17T05:15:26.058Z,75.93
2023-01-17T05:17:28.717Z,75.85
2023-01-17T05:19:31.478Z,75.72
2023-01-17T05:21:34.070Z,76.86
2023-01-17T05:23:36.782Z,76.88
2023-01-17T05:25:44.471Z,76.52
2023-01-17T05:27:47.390Z,76.85
2023-01-17T05:29:50.032Z,76.72
2023-01-17T05:31:52.653Z,76.17
2023-01-17T05:33:55.253Z,75.87
2023-01-17T05:35:58.393Z,75.93
2023-01-17T05:38:01.544Z,76.01
2023-01-17T05:40:06.353Z,75.91
2023-01-17T05:42:09.015Z,75.23
2023-01-17T05:44:11.821Z,76.37
2023-01-17T05:46:16.376Z,76.41
2023-01-17T05:48:19.008Z,76.89
2023-01-17T05:50:24.553Z,75.66
2023-01-17T05:52:27.277Z,75.36
2023-01-17T05:54:29.969Z,76.29
2023-01-17T05:56:33.397Z,77.05
2023-01-17T05:58:36.052Z,76.33
2023-01-17T06:00:38.945Z,76.56
2023-01-17T06:02:42.193Z,75.62
2023-01-17T06:04:44.819Z,75.69
2023-01-17T06:06:47.446Z,75.39
2023-01-17T06:08:50.104Z,74.70
2023-01-17T06:10:52.782Z,74.99
2023-01-17T06:13:06.664Z,75.42
2023-01-17T06:15:10.164Z,75.07
2023-01-17T06:17:12.862Z,74.46
2023-01-17T06:19:15.540Z,75.84
2023-01-17T06:21:18.209Z,74.13
2023-01-17T06:23:21.416Z,73.48
2023-01-17T06:25:24.108Z,72.22
2023-01-17T06:27:26.950Z,74.68
2023-01-17T06:29:29.632Z,74.13
2023-01-17T06:31:32.370Z,75.12
2023-01-17T06:33:35.169Z,74.53
2023-01-17T06:35:41.338Z,74.40
2023-01-17T06:37:43.949Z,73.25
2023-01-17T06:39:46.642Z,73.88
2023-01-17T06:41:49.227Z,71.92
2023-01-17T06:43:55.460Z,72.14
2023-01-17T06:45:58.086Z,71.12
2023-01-17T06:48:03.926Z,70.75
2023-01-17T06:50:08.323Z,71.30
2023-01-17T06:52:11.014Z,71.12
2023-01-17T06:54:14.258Z,71.86
2023-01-17T06:56:17.003Z,71.21
2023-01-17T06:58:19.772Z,70.74
2023-01-17T07:00:22.798Z,70.33
2023-01-17T07:02:25.539Z,71.15
2023-01-17T07:04:28.379Z,72.63
2023-01-17T07:06:31.005Z,72.65
2023-01-17T07:08:33.656Z,72.67
2023-01-17T07:10:36.281Z,72.21
2023-01-17T07:12:39.192Z,72.00
2023-01-17T07:14:41.869Z,71.53
2023-01-17T07:16:46.285Z,70.29
2023-01-17T07:18:49.149Z,71.04
2023-01-17T07:20:56.221Z,70.93
2023-01-17T07:22:59.664Z,70.48
2023-01-17T07:25:02.281Z,70.55
2023-01-17T07:27:07.538Z,70.38
2023-01-17T07:29:10.316Z,70.05
2023-01-17T07:31:13.108Z,70.23
2023-01-17T07:33:16.064Z,70.66
2023-01-17T07:35:18.838Z,70.28
2023-01-17T07:37:22.197Z,70.55
2023-01-17T07:39:24.865Z,71.01
2023-01-17T07:41:27.588Z,70.74
2023-01-17T07:43:30.340Z,71.38
2023-01-17T07:45:32.959Z,71.44
2023-01-17T07:47:35.676Z,71.18
2023-01-17T07:49:38.605Z,70.98
2023-01-17T07:51:41.267Z,70.61
2023-01-17T07:53:44.160Z,70.33
2023-01-17T07:55:46.755Z,71.17
2023-01-17T07:57:51.144Z,70.99
2023-01-17T07:59:53.732Z,70.43
2023-01-17T08:01:56.431Z,70.46
2023-01-17T08:03:59.266Z,71.04
2023-01-17T08:06:02.802Z,70.29
2023-01-17T08:08:05.619Z,70.35
2023-01-17T08:10:13.351Z,70.23
2023-01-17T08:12:16.317Z,70.36
2023-01-17T08:14:18.923Z,69.77
2023-01-17T08:16:21.550Z,69.91
2023-01-17T08:18:24.298Z,69.58
2023-01-17T08:20:28.155Z,70.34
2023-01-17T08:22:31.291Z,70.51
2023-01-17T08:24:34.455Z,69.79
2023-01-17T08:26:37.102Z,69.43
2023-01-17T08:28:39.756Z,69.06
2023-01-17T08:30:42.713Z,69.20
2023-01-17T08:32:45.527Z,69.04
2023-01-17T08:34:48.425Z,68.27
2023-01-17T08:36:54.131Z,69.21
2023-01-17T08:38:57.231Z,69.15
2023-01-17T08:41:02.942Z,69.91
2023-01-17T08:43:05.756Z,68.78
2023-01-17T08:45:10.370Z,69.60
2023-01-17T08:47:12.988Z,70.26
2023-01-17T08:49:15.714Z,69.77
2023-01-17T08:51:18.418Z,69.66
2023-01-17T08:53:23.316Z,69.44
2023-01-17T08:55:26.543Z,69.46
2023-01-17T08:57:29.206Z,69.64
2023-01-17T08:59:31.965Z,69.16
2023-01-17T09:01:41.012Z,69.41
2023-01-17T09:03:43.920Z,69.66
2023-01-17T09:05:46.535Z,70.18
2023-01-17T09:07:49.327Z,69.46
2023-01-17T09:09:52.881Z,69.76
2023-01-17T09:11:55.581Z,69.86
2023-01-17T09:13:58.226Z,69.63
2023-01-17T09:16:01.059Z,70.57
2023-01-17T09:18:03.866Z,70.38
2023-01-17T09:20:07.249Z,70.04
2023-01-17T09:22:10.331Z,69.53
2023-01-17T09:24:12.993Z,68.78
2023-01-17T09:26:20.596Z,69.25
2023-01-17T09:28:23.954Z,69.70
2023-01-17T09:30:26.683Z,69.85
2023-01-17T09:32:29.430Z,69.99
2023-01-17T09:34:32.269Z,69.48
2023-01-17T09:36:35.229Z,69.74
2023-01-17T09:38:38.809Z,69.16
2023-01-17T09:40:49.087Z,69.93
2023-01-17T09:42:55.596Z,70.03
2023-01-17T09:44:58.975Z,70.55
2023-01-17T09:47:16.629Z,70.37
2023-01-17T09:49:34.001Z,70.30
2023-01-17T09:51:37.358Z,69.75
2023-01-17T09:53:41.996Z,69.71
2023-01-17T09:55:53.792Z,70.08
2023-01-17T09:58:02.159Z,70.35
2023-01-17T10:00:13.262Z,70.05
2023-01-17T10:02:15.949Z,70.09
2023-01-17T10:04:21.564Z,70.57
2023-01-17T10:06:42.261Z,71.38
2023-01-17T10:09:21.620Z,71.39
2023-01-17T10:11:49.237Z,72.11
2023-01-17T10:14:36.975Z,72.78
2023-01-17T10:16:57.684Z,73.11
2023-01-17T10:19:31.627Z,73.16
2023-01-17T10:21:42.946Z,73.52
2023-01-17T10:23:57.513Z,73.68
2023-01-17T10:26:25.131Z,73.00
2023-01-17T10:28:47.205Z,73.24
2023-01-17T10:30:52.652Z,73.23
2023-01-17T10:33:00.029Z,72.70
2023-01-17T10:35:16.659Z,73.03
2023-01-17T10:37:42.930Z,73.42
2023-01-17T10:39:49.237Z,74.06
2023-01-17T10:41:58.303Z,73.58
2023-01-17T10:44:13.838Z,73.17
2023-01-17T10:46:28.849Z,72.19
2023-01-17T10:48:42.812Z,72.46
2023-01-17T10:51:13.174Z,72.99
2023-01-17T10:53:30.368Z,72.37
2023-01-17T10:55:44.246Z,73.10
2023-01-17T10:57:49.012Z,72.88
2023-01-17T10:59:52.694Z,73.24
2023-01-17T11:01:55.415Z,72.64
2023-01-17T11:03:58.720Z,72.50
2023-01-17T11:06:21.511Z,71.73
2023-01-17T11:08:24.156Z,72.17
2023-01-17T11:10:54.398Z,71.59
2023-01-17T11:12:57.149Z,72.32
2023-01-17T11:15:22.164Z,72.21
2023-01-17T11:17:26.815Z,72.91
2023-01-17T11:19:36.430Z,72.55
2023-01-17T11:21:40.410Z,72.09
2023-01-17T11:23:46.551Z,71.89
2023-01-17T11:25:57.255Z,73.11
2023-01-17T11:28:30.458Z,73.11
2023-01-17T11:30:34.135Z,73.67
2023-01-17T11:32:36.907Z,74.19
2023-01-17T11:34:39.538Z,74.54
2023-01-17T11:36:42.489Z,74.39
2023-01-17T11:39:03.111Z,74.41
2023-01-17T11:41:36.457Z,74.35
2023-01-17T11:43:51.964Z,74.79
2023-01-17T11:46:17.164Z,75.57
2023-01-17T11:48:19.860Z,76.03
2023-01-17T11:50:26.899Z,76.90
2023-01-17T11:52:34.664Z,76.32
2023-01-17T11:54:40.523Z,77.05
2023-01-17T11:56:46.429Z,76.45
2023-01-17T11:58:51.204Z,76.32
2023-01-17T12:01:29.021Z,77.14
2023-01-17T12:04:18.915Z,77.95
2023-01-17T12:06:27.298Z,78.03
2023-01-17T12:08:30.721Z,77.96
2023-01-17T12:10:43.500Z,77.68
2023-01-17T12:13:22.627Z,77.59
2023-01-17T12:15:56.048Z,77.88
2023-01-17T12:18:19.648Z,77.90
2023-01-17T12:20:48.641Z,77.90
2023-01-17T12:23:34.656Z,78.14
2023-01-17T12:25:55.386Z,77.67
2023-01-17T12:28:39.553Z,78.24
2023-01-17T12:31:00.402Z,78.38
2023-01-17T12:33:28.066Z,77.94
2023-01-17T12:35:51.037Z,77.45
2023-01-17T12:38:31.630Z,78.24
2023-01-17T12:40:51.453Z,78.42
2023-01-17T12:43:15.307Z,78.72
2023-01-17T12:45:32.242Z,79.20
2023-01-17T12:47:40.510Z,79.41
2023-01-17T12:49:53.923Z,80.10
2023-01-17T12:52:06.124Z,80.85
2023-01-17T12:54:33.808Z,81.41
2023-01-17T12:56:57.616Z,82.17
2023-01-17T12:59:30.108Z,83.49
2023-01-17T13:01:43.433Z,84.05
2023-01-17T13:04:17.829Z,84.42
2023-01-17T13:06:32.082Z,84.63
2023-01-17T13:08:49.992Z,84.21
2023-01-17T13:11:28.116Z,84.61
2023-01-17T13:13:31.791Z,84.23
2023-01-17T13:15:39.459Z,84.29
2023-01-17T13:17:50.621Z,84.35
2023-01-17T13:20:03.446Z,84.63
2023-01-17T13:22:10.698Z,84.42
2023-01-17T13:24:31.417Z,84.61
2023-01-17T13:26:55.954Z,84.95
2023-01-17T13:29:16.774Z,84.75
2023-01-17T13:31:48.527Z,84.52
2023-01-17T13:34:15.484Z,83.85
2023-01-17T13:36:32.876Z,83.85
2023-01-17T13:39:29.865Z,84.60
2023-01-17T13:41:45.073Z,84.03
2023-01-17T13:44:07.794Z,84.09
2023-01-17T13:46:11.404Z,84.95
2023-01-17T13:48:17.333Z,84.56
2023-01-17T13:50:38.657Z,84.58
2023-01-17T13:52:41.320Z,84.92
2023-01-17T13:54:47.219Z,85.29
2023-01-17T13:56:50.053Z,84.94
2023-01-17T13:58:54.880Z,84.79
2023-01-17T14:00:57.808Z,84.63
2023-01-17T14:03:00.622Z,84.15
2023-01-17T14:05:23.253Z,84.26
2023-01-17T14:07:26.796Z,84.56
2023-01-17T14:09:43.044Z,84.59
2023-01-17T14:12:25.858Z,85.17
2023-01-17T14:14:40.427Z,84.71
2023-01-17T14:16:45.506Z,85.23
2023-01-17T14:18:49.908Z,85.69
2023-01-17T14:21:05.483Z,85.87
2023-01-17T14:23:46.231Z,86.52
2023-01-17T14:25:51.095Z,85.94
2023-01-17T14:28:06.369Z,86.72
2023-01-17T14:30:18.199Z,85.73
2023-01-17T14:32:26.059Z,86.12
2023-01-17T14:34:29.000Z,85.75
2023-01-17T14:36:33.374Z,85.91
2023-01-17T14:38:42.966Z,85.90
2023-01-17T14:41:13.838Z,86.33
2023-01-17T14:43:20.683Z,85.75
2023-01-17T14:45:28.995Z,85.46
2023-01-17T14:47:34.465Z,85.96
2023-01-17T14:49:37.091Z,85.74
2023-01-17T14:51:39.897Z,86.44
2023-01-17T14:53:54.357Z,86.24
2023-01-17T14:56:00.130Z,86.30
2023-01-17T14:58:02.849Z,86.54
2023-01-17T15:00:22.015Z,86.32
2023-01-17T15:02:24.899Z,86.39
2023-01-17T15:04:32.069Z,86.95
2023-01-17T15:06:42.199Z,86.66
2023-01-17T15:08:45.617Z,86.43
2023-01-17T15:10:58.733Z,86.74
2023-01-17T15:13:09.583Z,87.22
2023-01-17T15:15:32.301Z,87.47
2023-01-17T15:17:34.945Z,87.98
2023-01-17T15:19:45.872Z,87.68
2023-01-17T15:21:52.386Z,88.24
2023-01-17T15:23:58.412Z,87.96
2023-01-17T15:26:02.420Z,88.43
2023-01-17T15:28:06.763Z,88.39
2023-01-17T15:30:15.327Z,88.53
2023-01-17T15:32:28.099Z,88.35
2023-01-17T15:34:33.379Z,88.88
2023-01-17T15:36:36.143Z,89.25
2023-01-17T15:38:48.083Z,88.90
2023-01-17T15:40:50.820Z,89.83
2023-01-17T15:42:58.611Z,89.65
2023-01-17T15:45:06.841Z,89.82
2023-01-17T15:47:30.601Z,88.81
2023-01-17T15:49:33.253Z,89.11
2023-01-17T15:51:39.448Z,89.10
2023-01-17T15:53:43.297Z,89.64
2023-01-17T15:55:48.152Z,89.59
2023-01-17T15:57:50.842Z,89.20
2023-01-17T16:00:09.599Z,89.11
2023-01-17T16:02:24.189Z,89.35
2023-01-17T16:04:35.186Z,88.80
2023-01-17T16:06:45.910Z,88.89
2023-01-17T16:08:54.188Z,88.80
2023-01-17T16:11:02.700Z,88.87
2023-01-17T16:13:07.446Z,88.30
2023-01-17T16:15:13.277Z,88.52
2023-01-17T16:17:17.918Z,87.65
2023-01-17T16:19:21.852Z,87.90
2023-01-17T16:21:27.444Z,87.52
2023-01-17T16:23:30.008Z,87.58
2023-01-17T16:25:33.145Z,87.04
2023-01-17T16:27:35.757Z,87.28
2023-01-17T16:29:38.347Z,86.83
2023-01-17T16:31:41.017Z,86.84
2023-01-17T16:33:43.754Z,86.96
2023-01-17T16:35:46.432Z,87.13
2023-01-17T16:37:57.007Z,87.19
2023-01-17T16:39:59.740Z,86.35
2023-01-17T16:42:03.231Z,86.39
2023-01-17T16:44:06.452Z,86.82
2023-01-17T16:46:11.985Z,86.64
2023-01-17T16:48:16.344Z,86.50
2023-01-17T16:50:22.994Z,85.76
2023-01-17T16:52:25.645Z,85.70
2023-01-17T16:54:28.408Z,86.05
2023-01-17T16:56:31.298Z,85.29
2023-01-17T16:58:33.899Z,85.39
2023-01-17T17:00:36.723Z,85.36
2023-01-17T17:02:40.873Z,84.79
2023-01-17T17:04:43.505Z,84.41
2023-01-17T17:06:46.416Z,84.13
2023-01-17T17:08:49.216Z,81.75
2023-01-17T17:10:52.256Z,82.83
2023-01-17T17:12:54.993Z,82.12
2023-01-17T17:14:57.654Z,82.00
2023-01-17T17:17:01.712Z,81.59
2023-01-17T17:19:07.011Z,81.33
2023-01-17T17:21:10.363Z,81.00
2023-01-17T17:23:13.116Z,79.64
2023-01-17T17:25:16.292Z,80.53
2023-01-17T17:27:19.389Z,79.63
2023-01-17T17:29:22.125Z,80.27
2023-01-17T17:31:25.222Z,79.84
2023-01-17T17:33:28.276Z,79.91
2023-01-17T17:35:34.220Z,79.15
2023-01-17T17:37:37.759Z,79.56
2023-01-17T17:39:40.774Z,78.86
2023-01-17T17:41:45.785Z,78.15
2023-01-17T17:43:49.175Z,79.13
2023-01-17T17:45:51.819Z,78.54
2023-01-17T17:47:57.355Z,78.55
2023-01-17T17:50:00.068Z,78.79
2023-01-17T17:52:09.086Z,78.70
2023-01-17T17:54:13.640Z,77.86
2023-01-17T17:56:17.297Z,78.04
2023-01-17T17:58:23.577Z,77.63
2023-01-17T18:00:26.374Z,77.36
2023-01-17T18:02:29.131Z,76.81
2023-01-17T18:04:31.911Z,77.46
2023-01-17T18:06:35.776Z,77.83
2023-01-17T18:08:39.803Z,77.72
2023-01-17T18:10:43.075Z,76.47
2023-01-17T18:12:45.718Z,77.72
2023-01-17T18:14:48.412Z,77.48
2023-01-17T18:16:51.857Z,77.02
2023-01-17T18:18:57.031Z,76.05
2023-01-17T18:21:12.835Z,76.50
2023-01-17T18:23:15.735Z,75.52
2023-01-17T18:25:18.415Z,75.47
2023-01-17T18:27:21.037Z,75.87
2023-01-17T18:29:25.454Z,75.88
2023-01-17T18:31:30.118Z,75.57
2023-01-17T18:33:35.850Z,75.59
2023-01-17T18:35:38.502Z,75.17
2023-01-17T18:37:41.342Z,74.14
2023-01-17T18:39:44.303Z,74.69
2023-01-17T18:41:47.631Z,74.99
2023-01-17T18:43:50.345Z,74.70
2023-01-17T18:45:53.540Z,74.77
2023-01-17T18:47:56.425Z,75.16
2023-01-17T18:49:59.322Z,74.66
2023-01-17T18:52:02.491Z,74.27
2023-01-17T18:54:06.890Z,75.20
2023-01-17T18:56:12.676Z,74.39
2023-01-17T18:58:15.446Z,74.26
2023-01-17T19:00:19.757Z,74.86
2023-01-17T19:02:22.587Z,74.66
2023-01-17T19:04:25.213Z,73.56
2023-01-17T19:06:33.595Z,74.21
2023-01-17T19:08:36.527Z,73.20
2023-01-17T19:10:40.857Z,73.88
2023-01-17T19:12:44.712Z,74.68
2023-01-17T19:14:48.264Z,73.73
2023-01-17T19:16:51.128Z,74.57
2023-01-17T19:18:55.747Z,73.97
2023-01-17T19:21:11.445Z,75.66
2023-01-17T19:23:14.320Z,75.50
2023-01-17T19:25:18.035Z,74.81
2023-01-17T19:27:21.037Z,74.07
2023-01-17T19:29:23.652Z,73.72
2023-01-17T19:31:30.869Z,74.20
2023-01-17T19:33:35.949Z,73.16
2023-01-17T19:35:38.581Z,72.77
2023-01-17T19:37:48.231Z,72.77
2023-01-17T19:39:50.865Z,72.52
2023-01-17T19:41:53.663Z,72.14
2023-01-17T19:44:10.571Z,72.89
2023-01-17T19:46:13.296Z,72.47
2023-01-17T19:48:17.052Z,72.26
2023-01-17T19:50:20.023Z,72.17
2023-01-17T19:52:24.292Z,71.00
2023-01-17T19:54:26.953Z,72.10
2023-01-17T19:56:30.320Z,73.01
2023-01-17T19:58:33.130Z,71.02
2023-01-17T20:00:45.876Z,71.39
2023-01-17T20:02:49.243Z,70.80
2023-01-17T20:04:51.920Z,71.23
2023-01-17T20:06:54.587Z,70.15
2023-01-17T20:08:57.833Z,70.06
2023-01-17T20:11:14.725Z,69.84
2023-01-17T20:13:17.374Z,70.02
2023-01-17T20:15:20.103Z,68.71
2023-01-17T20:17:22.741Z,68.46
2023-01-17T20:19:25.425Z,69.26
2023-01-17T20:21:29.803Z,69.13
2023-01-17T20:23:36.742Z,68.94
2023-01-17T20:25:39.568Z,68.98
2023-01-17T20:27:42.960Z,69.49
2023-01-17T20:29:45.842Z,69.73
2023-01-17T20:31:52.595Z,68.01
2023-01-17T20:33:56.613Z,67.99
2023-01-17T20:36:10.924Z,67.58
2023-01-17T20:38:13.775Z,67.65
2023-01-17T20:40:17.708Z,68.34
2023-01-17T20:42:20.375Z,67.28
2023-01-17T20:44:24.013Z,66.48
2023-01-17T20:46:29.276Z,66.43
2023-01-17T20:48:31.882Z,67.38
2023-01-17T20:50:37.043Z,68.15
2023-01-17T20:52:40.465Z,67.47
2023-01-17T20:54:43.488Z,68.19
2023-01-17T20:56:47.700Z,67.99
2023-01-17T20:58:54.681Z,68.56
2023-01-17T21:00:59.301Z,68.19
2023-01-17T21:03:02.144Z,69.46
2023-01-17T21:05:05.362Z,68.29
2023-01-17T21:07:08.415Z,68.59
2023-01-17T21:09:20.232Z,69.04
2023-01-17T21:11:26.198Z,69.17
2023-01-17T21:13:32.009Z,68.85
2023-01-17T21:15:34.847Z,69.11
2023-01-17T21:17:42.480Z,69.87
2023-01-17T21:19:45.385Z,69.52
2023-01-17T21:21:49.057Z,69.74
2023-01-17T21:23:54.295Z,69.58
2023-01-17T21:25:58.340Z,70.32
2023-01-17T21:28:01.155Z,70.16
2023-01-17T21:30:04.285Z,70.58
2023-01-17T21:32:08.906Z,70.38
2023-01-17T21:34:13.960Z,70.67
2023-01-17T21:36:17.030Z,70.59
2023-01-17T21:38:19.814Z,70.10
2023-01-17T21:40:22.536Z,70.00
2023-01-17T21:42:25.350Z,69.76
2023-01-17T21:44:28.149Z,69.57
2023-01-17T21:46:31.032Z,70.88
2023-01-17T21:48:33.904Z,70.79
2023-01-17T21:50:36.645Z,70.60
2023-01-17T21:52:39.507Z,70.63
2023-01-17T21:55:00.719Z,70.06
2023-01-17T21:57:38.681Z,70.54
2023-01-17T21:59:41.397Z,70.18
2023-01-17T22:01:44.206Z,70.45
2023-01-17T22:03:53.048Z,70.76
2023-01-17T22:05:56.007Z,71.07
2023-01-17T22:08:15.475Z,70.88
2023-01-17T22:10:18.323Z,71.04
2023-01-17T22:12:21.077Z,70.60
2023-01-17T22:14:23.705Z,70.67
2023-01-17T22:16:26.630Z,71.22
2023-01-17T22:18:30.023Z,70.81
2023-01-17T22:20:33.406Z,70.68
2023-01-17T22:22:37.305Z,70.75
2023-01-17T22:24:40.720Z,71.17
2023-01-17T22:26:43.765Z,70.72
2023-01-17T22:28:46.538Z,70.31
2023-01-17T22:30:49.294Z,69.70
2023-01-17T22:32:52.058Z,69.78
2023-01-17T22:34:54.727Z,71.04
2023-01-17T22:36:57.483Z,71.21
2023-01-17T22:39:00.638Z,71.13
2023-01-17T22:41:10.148Z,69.89
2023-01-17T22:43:12.856Z,69.90
2023-01-17T22:45:17.567Z,69.87
2023-01-17T22:47:20.123Z,70.46
2023-01-17T22:49:23.767Z,70.58
2023-01-17T22:51:28.415Z,69.83
2023-01-17T22:53:31.736Z,70.97
2023-01-17T22:55:34.386Z,69.27
2023-01-17T22:57:36.958Z,69.24
2023-01-17T22:59:39.586Z,69.67
2023-01-17T23:01:42.267Z,68.41
2023-01-17T23:03:46.634Z,69.85
2023-01-17T23:05:49.391Z,69.60
2023-01-17T23:07:52.211Z,70.60
2023-01-17T23:09:54.933Z,69.45
2023-01-17T23:11:57.798Z,70.49
2023-01-17T23:14:00.603Z,70.10
2023-01-17T23:16:23.749Z,69.95
2023-01-17T23:18:45.061Z,71.05
2023-01-17T23:20:47.713Z,70.48
2023-01-17T23:22:50.473Z,70.99
2023-01-17T23:24:54.468Z,71.75
2023-01-17T23:27:15.528Z,71.18
2023-01-17T23:29:18.965Z,71.51
2023-01-17T23:31:21.723Z,70.97
2023-01-17T23:33:24.601Z,73.07
2023-01-17T23:35:32.533Z,72.79
2023-01-17T23:37:53.875Z,72.44
2023-01-17T23:39:56.471Z,71.54
2023-01-17T23:42:17.611Z,73.48
2023-01-17T23:44:20.260Z,73.47
2023-01-17T23:46:24.240Z,73.96
2023-01-17T23:48:27.572Z,73.35
2023-01-17T23:50:30.168Z,74.76
2023-01-17T23:52:32.774Z,74.38
2023-01-17T23:54:35.462Z,74.51
2023-01-17T23:56:38.088Z,75.22
2023-01-17T23:58:40.907Z,76.15
